sensor_id;sensor_type;location;lat;lon;timestamp;P1;durP1;ratioP1;P2;durP2;ratioP2
51981;SDS011;37998;53.416;6.730;2023-03-08T00:02:16;2.47;;;1.50;;
51981;SDS011;37998;53.416;6.730;2023-03-08T00:04:42;1.80;;;1.33;;
51981;SDS011;37998;53.416;6.730;2023-03-08T00:07:07;2.25;;;1.35;;
51981;SDS011;37998;53.416;6.730;2023-03-08T00:09:33;3.60;;;1.80;;
51981;SDS011;37998;53.416;6.730;2023-03-08T00:12:01;2.35;;;1.70;;
51981;SDS011;37998;53.416;6.730;2023-03-08T00:14:26;3.22;;;1.70;;
51981;SDS011;37998;53.416;6.730;2023-03-08T00:16:52;2.15;;;1.60;;
51981;SDS011;37998;53.416;6.730;2023-03-08T00:19:17;2.97;;;1.70;;
51981;SDS011;37998;53.416;6.730;2023-03-08T00:21:43;3.42;;;2.13;;
51981;SDS011;37998;53.416;6.730;2023-03-08T00:24:09;3.08;;;1.70;;
51981;SDS011;37998;53.416;6.730;2023-03-08T00:26:36;3.10;;;1.90;;
51981;SDS011;37998;53.416;6.730;2023-03-08T00:29:02;3.97;;;1.98;;
51981;SDS011;37998;53.416;6.730;2023-03-08T00:31:27;4.55;;;3.00;;
51981;SDS011;37998;53.416;6.730;2023-03-08T00:33:53;5.80;;;2.40;;
51981;SDS011;37998;53.416;6.730;2023-03-08T00:36:19;2.60;;;1.90;;
51981;SDS011;37998;53.416;6.730;2023-03-08T00:38:45;4.03;;;2.08;;
51981;SDS011;37998;53.416;6.730;2023-03-08T00:41:11;4.53;;;2.10;;
51981;SDS011;37998;53.416;6.730;2023-03-08T00:43:37;7.25;;;2.00;;
51981;SDS011;37998;53.416;6.730;2023-03-08T00:46:03;3.53;;;2.17;;
51981;SDS011;37998;53.416;6.730;2023-03-08T00:48:30;6.15;;;2.28;;
51981;SDS011;37998;53.416;6.730;2023-03-08T00:50:55;4.38;;;2.25;;
51981;SDS011;37998;53.416;6.730;2023-03-08T00:53:21;4.30;;;2.17;;
51981;SDS011;37998;53.416;6.730;2023-03-08T00:55:47;3.50;;;1.70;;
51981;SDS011;37998;53.416;6.730;2023-03-08T00:58:14;3.08;;;1.88;;
51981;SDS011;37998;53.416;6.730;2023-03-08T01:00:40;1.88;;;1.70;;
51981;SDS011;37998;53.416;6.730;2023-03-08T01:03:06;3.25;;;2.13;;
51981;SDS011;37998;53.416;6.730;2023-03-08T01:05:31;2.45;;;1.65;;
51981;SDS011;37998;53.416;6.730;2023-03-08T01:07:57;7.80;;;2.13;;
51981;SDS011;37998;53.416;6.730;2023-03-08T01:10:23;3.97;;;1.80;;
51981;SDS011;37998;53.416;6.730;2023-03-08T01:12:48;4.00;;;2.10;;
51981;SDS011;37998;53.416;6.730;2023-03-08T01:15:14;3.85;;;2.22;;
51981;SDS011;37998;53.416;6.730;2023-03-08T01:17:40;6.40;;;2.05;;
51981;SDS011;37998;53.416;6.730;2023-03-08T01:20:06;7.50;;;2.40;;
51981;SDS011;37998;53.416;6.730;2023-03-08T01:22:32;6.22;;;1.90;;
51981;SDS011;37998;53.416;6.730;2023-03-08T01:24:57;2.05;;;1.58;;
51981;SDS011;37998;53.416;6.730;2023-03-08T01:27:23;3.30;;;1.77;;
51981;SDS011;37998;53.416;6.730;2023-03-08T01:29:49;3.22;;;1.88;;
51981;SDS011;37998;53.416;6.730;2023-03-08T01:32:14;4.97;;;2.05;;
51981;SDS011;37998;53.416;6.730;2023-03-08T01:34:40;3.10;;;1.85;;
51981;SDS011;37998;53.416;6.730;2023-03-08T01:37:05;4.22;;;2.15;;
51981;SDS011;37998;53.416;6.730;2023-03-08T01:39:31;2.72;;;1.70;;
51981;SDS011;37998;53.416;6.730;2023-03-08T01:41:57;1.85;;;1.67;;
51981;SDS011;37998;53.416;6.730;2023-03-08T01:44:22;3.63;;;1.67;;
51981;SDS011;37998;53.416;6.730;2023-03-08T01:46:48;1.80;;;1.63;;
51981;SDS011;37998;53.416;6.730;2023-03-08T01:49:17;2.55;;;1.80;;
51981;SDS011;37998;53.416;6.730;2023-03-08T01:51:51;2.78;;;1.58;;
51981;SDS011;37998;53.416;6.730;2023-03-08T01:54:34;2.90;;;1.60;;
51981;SDS011;37998;53.416;6.730;2023-03-08T01:57:08;4.95;;;1.73;;
51981;SDS011;37998;53.416;6.730;2023-03-08T01:59:38;2.38;;;1.35;;
51981;SDS011;37998;53.416;6.730;2023-03-08T02:02:04;5.97;;;1.48;;
51981;SDS011;37998;53.416;6.730;2023-03-08T02:04:30;1.85;;;1.50;;
51981;SDS011;37998;53.416;6.730;2023-03-08T02:06:56;3.35;;;1.30;;
51981;SDS011;37998;53.416;6.730;2023-03-08T02:09:22;1.98;;;1.40;;
51981;SDS011;37998;53.416;6.730;2023-03-08T02:11:49;2.67;;;1.48;;
51981;SDS011;37998;53.416;6.730;2023-03-08T02:14:15;1.80;;;1.25;;
51981;SDS011;37998;53.416;6.730;2023-03-08T02:16:41;1.60;;;1.45;;
51981;SDS011;37998;53.416;6.730;2023-03-08T02:19:10;2.85;;;1.25;;
51981;SDS011;37998;53.416;6.730;2023-03-08T02:21:40;4.05;;;1.50;;
51981;SDS011;37998;53.416;6.730;2023-03-08T02:24:16;2.92;;;1.45;;
51981;SDS011;37998;53.416;6.730;2023-03-08T02:26:46;4.40;;;1.50;;
51981;SDS011;37998;53.416;6.730;2023-03-08T02:29:13;4.28;;;1.70;;
51981;SDS011;37998;53.416;6.730;2023-03-08T02:31:39;1.77;;;1.40;;
51981;SDS011;37998;53.416;6.730;2023-03-08T02:34:05;3.60;;;1.60;;
51981;SDS011;37998;53.416;6.730;2023-03-08T02:36:30;2.05;;;1.50;;
51981;SDS011;37998;53.416;6.730;2023-03-08T02:38:56;1.63;;;1.50;;
51981;SDS011;37998;53.416;6.730;2023-03-08T02:41:22;5.15;;;1.67;;
51981;SDS011;37998;53.416;6.730;2023-03-08T02:43:47;4.20;;;1.70;;
51981;SDS011;37998;53.416;6.730;2023-03-08T02:46:13;7.93;;;1.90;;
51981;SDS011;37998;53.416;6.730;2023-03-08T02:48:39;3.05;;;1.50;;
51981;SDS011;37998;53.416;6.730;2023-03-08T02:51:04;1.50;;;1.38;;
51981;SDS011;37998;53.416;6.730;2023-03-08T02:53:30;3.28;;;1.63;;
51981;SDS011;37998;53.416;6.730;2023-03-08T02:55:56;3.30;;;1.65;;
51981;SDS011;37998;53.416;6.730;2023-03-08T02:58:21;4.05;;;1.45;;
51981;SDS011;37998;53.416;6.730;2023-03-08T03:00:47;2.42;;;1.40;;
51981;SDS011;37998;53.416;6.730;2023-03-08T03:03:13;4.47;;;1.60;;
51981;SDS011;37998;53.416;6.730;2023-03-08T03:05:42;1.50;;;1.40;;
51981;SDS011;37998;53.416;6.730;2023-03-08T03:08:09;1.50;;;1.30;;
51981;SDS011;37998;53.416;6.730;2023-03-08T03:10:35;2.08;;;1.42;;
51981;SDS011;37998;53.416;6.730;2023-03-08T03:13:02;1.70;;;1.60;;
51981;SDS011;37998;53.416;6.730;2023-03-08T03:15:30;11.07;;;2.80;;
51981;SDS011;37998;53.416;6.730;2023-03-08T03:17:56;3.72;;;1.70;;
51981;SDS011;37998;53.416;6.730;2023-03-08T03:20:22;2.40;;;1.77;;
51981;SDS011;37998;53.416;6.730;2023-03-08T03:22:48;7.70;;;1.52;;
51981;SDS011;37998;53.416;6.730;2023-03-08T03:25:13;4.88;;;1.55;;
51981;SDS011;37998;53.416;6.730;2023-03-08T03:27:39;3.60;;;1.42;;
51981;SDS011;37998;53.416;6.730;2023-03-08T03:30:06;1.80;;;1.60;;
51981;SDS011;37998;53.416;6.730;2023-03-08T03:32:32;5.20;;;1.55;;
51981;SDS011;37998;53.416;6.730;2023-03-08T03:34:58;2.53;;;1.75;;
51981;SDS011;37998;53.416;6.730;2023-03-08T03:37:24;4.07;;;1.65;;
51981;SDS011;37998;53.416;6.730;2023-03-08T03:39:50;3.58;;;1.80;;
51981;SDS011;37998;53.416;6.730;2023-03-08T03:42:15;5.32;;;1.48;;
51981;SDS011;37998;53.416;6.730;2023-03-08T03:44:42;2.72;;;1.40;;
51981;SDS011;37998;53.416;6.730;2023-03-08T03:47:08;4.88;;;1.70;;
51981;SDS011;37998;53.416;6.730;2023-03-08T03:49:33;3.15;;;1.45;;
51981;SDS011;37998;53.416;6.730;2023-03-08T03:51:59;6.55;;;1.50;;
51981;SDS011;37998;53.416;6.730;2023-03-08T03:54:25;2.65;;;1.40;;
51981;SDS011;37998;53.416;6.730;2023-03-08T03:56:51;2.17;;;1.30;;
51981;SDS011;37998;53.416;6.730;2023-03-08T03:59:17;4.15;;;1.60;;
51981;SDS011;37998;53.416;6.730;2023-03-08T04:01:42;6.10;;;2.10;;
51981;SDS011;37998;53.416;6.730;2023-03-08T04:04:08;3.70;;;1.80;;
51981;SDS011;37998;53.416;6.730;2023-03-08T04:06:34;3.65;;;1.95;;
51981;SDS011;37998;53.416;6.730;2023-03-08T04:09:02;4.07;;;1.90;;
51981;SDS011;37998;53.416;6.730;2023-03-08T04:11:33;3.80;;;1.50;;
51981;SDS011;37998;53.416;6.730;2023-03-08T04:14:00;2.42;;;1.55;;
51981;SDS011;37998;53.416;6.730;2023-03-08T04:16:28;3.53;;;1.50;;
51981;SDS011;37998;53.416;6.730;2023-03-08T04:18:56;3.17;;;1.58;;
51981;SDS011;37998;53.416;6.730;2023-03-08T04:21:27;3.53;;;1.80;;
51981;SDS011;37998;53.416;6.730;2023-03-08T04:23:53;2.97;;;1.63;;
51981;SDS011;37998;53.416;6.730;2023-03-08T04:26:20;6.45;;;1.77;;
51981;SDS011;37998;53.416;6.730;2023-03-08T04:28:46;3.10;;;1.35;;
51981;SDS011;37998;53.416;6.730;2023-03-08T04:33:38;1.35;;;1.20;;
51981;SDS011;37998;53.416;6.730;2023-03-08T04:36:04;1.65;;;1.50;;
51981;SDS011;37998;53.416;6.730;2023-03-08T04:38:30;2.05;;;1.63;;
51981;SDS011;37998;53.416;6.730;2023-03-08T04:40:57;5.45;;;1.42;;
51981;SDS011;37998;53.416;6.730;2023-03-08T04:43:30;2.33;;;1.23;;
51981;SDS011;37998;53.416;6.730;2023-03-08T04:45:57;2.33;;;1.30;;
51981;SDS011;37998;53.416;6.730;2023-03-08T04:48:23;6.00;;;1.40;;
51981;SDS011;37998;53.416;6.730;2023-03-08T04:50:52;5.20;;;1.67;;
51981;SDS011;37998;53.416;6.730;2023-03-08T04:53:19;1.30;;;1.20;;
51981;SDS011;37998;53.416;6.730;2023-03-08T04:55:45;1.33;;;1.13;;
51981;SDS011;37998;53.416;6.730;2023-03-08T04:58:11;1.95;;;1.50;;
51981;SDS011;37998;53.416;6.730;2023-03-08T05:00:37;3.83;;;1.42;;
51981;SDS011;37998;53.416;6.730;2023-03-08T05:03:02;2.65;;;1.50;;
51981;SDS011;37998;53.416;6.730;2023-03-08T05:05:28;1.48;;;1.38;;
51981;SDS011;37998;53.416;6.730;2023-03-08T05:07:54;3.30;;;1.50;;
51981;SDS011;37998;53.416;6.730;2023-03-08T05:10:19;2.08;;;1.50;;
51981;SDS011;37998;53.416;6.730;2023-03-08T05:12:45;1.45;;;1.20;;
51981;SDS011;37998;53.416;6.730;2023-03-08T05:15:10;1.40;;;1.30;;
51981;SDS011;37998;53.416;6.730;2023-03-08T05:17:36;2.53;;;1.33;;
51981;SDS011;37998;53.416;6.730;2023-03-08T05:20:02;1.40;;;1.30;;
51981;SDS011;37998;53.416;6.730;2023-03-08T05:22:28;2.83;;;1.50;;
51981;SDS011;37998;53.416;6.730;2023-03-08T05:24:54;2.13;;;1.50;;
51981;SDS011;37998;53.416;6.730;2023-03-08T05:27:19;2.97;;;1.60;;
51981;SDS011;37998;53.416;6.730;2023-03-08T05:29:45;1.30;;;1.20;;
51981;SDS011;37998;53.416;6.730;2023-03-08T05:32:10;2.03;;;1.40;;
51981;SDS011;37998;53.416;6.730;2023-03-08T05:34:36;2.50;;;1.13;;
51981;SDS011;37998;53.416;6.730;2023-03-08T05:37:02;1.52;;;1.20;;
51981;SDS011;37998;53.416;6.730;2023-03-08T05:39:28;3.38;;;1.50;;
51981;SDS011;37998;53.416;6.730;2023-03-08T05:41:54;4.25;;;1.20;;
51981;SDS011;37998;53.416;6.730;2023-03-08T05:44:20;2.60;;;1.27;;
51981;SDS011;37998;53.416;6.730;2023-03-08T05:46:48;3.38;;;1.20;;
51981;SDS011;37998;53.416;6.730;2023-03-08T05:49:14;1.95;;;1.67;;
51981;SDS011;37998;53.416;6.730;2023-03-08T05:51:40;1.55;;;1.40;;
51981;SDS011;37998;53.416;6.730;2023-03-08T05:54:06;1.50;;;1.40;;
51981;SDS011;37998;53.416;6.730;2023-03-08T05:56:32;1.42;;;1.30;;
51981;SDS011;37998;53.416;6.730;2023-03-08T05:58:58;1.67;;;1.45;;
51981;SDS011;37998;53.416;6.730;2023-03-08T06:01:24;5.95;;;2.05;;
51981;SDS011;37998;53.416;6.730;2023-03-08T06:03:52;6.63;;;1.90;;
51981;SDS011;37998;53.416;6.730;2023-03-08T06:06:19;3.40;;;1.70;;
51981;SDS011;37998;53.416;6.730;2023-03-08T06:08:46;4.25;;;1.60;;
51981;SDS011;37998;53.416;6.730;2023-03-08T06:11:12;5.75;;;2.88;;
51981;SDS011;37998;53.416;6.730;2023-03-08T06:13:38;3.75;;;1.65;;
51981;SDS011;37998;53.416;6.730;2023-03-08T06:16:04;1.40;;;1.33;;
51981;SDS011;37998;53.416;6.730;2023-03-08T06:18:31;2.50;;;1.65;;
51981;SDS011;37998;53.416;6.730;2023-03-08T06:21:01;3.38;;;1.50;;
51981;SDS011;37998;53.416;6.730;2023-03-08T06:23:30;3.20;;;1.40;;
51981;SDS011;37998;53.416;6.730;2023-03-08T06:25:56;2.72;;;1.92;;
51981;SDS011;37998;53.416;6.730;2023-03-08T06:28:23;3.50;;;1.73;;
51981;SDS011;37998;53.416;6.730;2023-03-08T06:30:49;3.28;;;2.00;;
51981;SDS011;37998;53.416;6.730;2023-03-08T06:33:16;2.38;;;1.45;;
51981;SDS011;37998;53.416;6.730;2023-03-08T06:35:42;4.00;;;1.50;;
51981;SDS011;37998;53.416;6.730;2023-03-08T06:38:08;2.00;;;1.42;;
51981;SDS011;37998;53.416;6.730;2023-03-08T06:40:34;3.38;;;1.40;;
51981;SDS011;37998;53.416;6.730;2023-03-08T06:42:59;2.05;;;1.48;;
51981;SDS011;37998;53.416;6.730;2023-03-08T06:45:25;2.55;;;1.40;;
51981;SDS011;37998;53.416;6.730;2023-03-08T06:47:51;3.53;;;1.58;;
51981;SDS011;37998;53.416;6.730;2023-03-08T06:50:17;1.77;;;1.42;;
51981;SDS011;37998;53.416;6.730;2023-03-08T06:52:43;2.65;;;1.50;;
51981;SDS011;37998;53.416;6.730;2023-03-08T06:55:09;4.38;;;1.70;;
51981;SDS011;37998;53.416;6.730;2023-03-08T06:57:35;6.57;;;1.83;;
51981;SDS011;37998;53.416;6.730;2023-03-08T07:00:00;2.13;;;1.40;;
51981;SDS011;37998;53.416;6.730;2023-03-08T07:02:27;6.18;;;1.80;;
51981;SDS011;37998;53.416;6.730;2023-03-08T07:04:53;4.25;;;1.48;;
51981;SDS011;37998;53.416;6.730;2023-03-08T07:07:18;4.07;;;1.83;;
51981;SDS011;37998;53.416;6.730;2023-03-08T07:09:44;3.38;;;1.60;;
51981;SDS011;37998;53.416;6.730;2023-03-08T07:12:09;2.33;;;1.30;;
51981;SDS011;37998;53.416;6.730;2023-03-08T07:14:35;1.80;;;1.48;;
51981;SDS011;37998;53.416;6.730;2023-03-08T07:17:01;2.92;;;1.50;;
51981;SDS011;37998;53.416;6.730;2023-03-08T07:19:26;5.75;;;1.80;;
51981;SDS011;37998;53.416;6.730;2023-03-08T07:21:52;3.22;;;1.70;;
51981;SDS011;37998;53.416;6.730;2023-03-08T07:24:17;1.67;;;1.50;;
51981;SDS011;37998;53.416;6.730;2023-03-08T07:26:43;3.70;;;1.50;;
51981;SDS011;37998;53.416;6.730;2023-03-08T07:29:09;2.45;;;1.50;;
51981;SDS011;37998;53.416;6.730;2023-03-08T07:31:34;1.45;;;1.35;;
51981;SDS011;37998;53.416;6.730;2023-03-08T07:34:01;3.90;;;1.70;;
51981;SDS011;37998;53.416;6.730;2023-03-08T07:36:29;2.40;;;1.45;;
51981;SDS011;37998;53.416;6.730;2023-03-08T07:38:56;2.55;;;1.35;;
51981;SDS011;37998;53.416;6.730;2023-03-08T07:41:21;1.60;;;1.50;;
51981;SDS011;37998;53.416;6.730;2023-03-08T07:43:47;1.52;;;1.40;;
51981;SDS011;37998;53.416;6.730;2023-03-08T07:46:13;2.85;;;2.40;;
51981;SDS011;37998;53.416;6.730;2023-03-08T07:48:39;2.63;;;2.30;;
51981;SDS011;37998;53.416;6.730;2023-03-08T07:51:05;5.75;;;1.90;;
51981;SDS011;37998;53.416;6.730;2023-03-08T07:53:33;4.15;;;1.98;;
51981;SDS011;37998;53.416;6.730;2023-03-08T07:56:00;3.97;;;1.63;;
51981;SDS011;37998;53.416;6.730;2023-03-08T07:58:26;6.43;;;1.95;;
51981;SDS011;37998;53.416;6.730;2023-03-08T08:00:53;4.38;;;2.78;;
51981;SDS011;37998;53.416;6.730;2023-03-08T08:03:18;6.40;;;3.20;;
51981;SDS011;37998;53.416;6.730;2023-03-08T08:05:44;4.32;;;2.40;;
51981;SDS011;37998;53.416;6.730;2023-03-08T08:08:10;3.85;;;2.15;;
51981;SDS011;37998;53.416;6.730;2023-03-08T08:10:38;4.38;;;2.63;;
51981;SDS011;37998;53.416;6.730;2023-03-08T08:13:04;3.63;;;2.08;;
51981;SDS011;37998;53.416;6.730;2023-03-08T08:15:30;5.57;;;2.00;;
51981;SDS011;37998;53.416;6.730;2023-03-08T08:17:57;5.57;;;2.17;;
51981;SDS011;37998;53.416;6.730;2023-03-08T08:20:23;2.78;;;2.20;;
51981;SDS011;37998;53.416;6.730;2023-03-08T08:22:50;4.22;;;2.35;;
51981;SDS011;37998;53.416;6.730;2023-03-08T08:25:17;5.50;;;2.50;;
51981;SDS011;37998;53.416;6.730;2023-03-08T08:27:43;5.28;;;2.47;;
51981;SDS011;37998;53.416;6.730;2023-03-08T08:30:10;5.20;;;2.45;;
51981;SDS011;37998;53.416;6.730;2023-03-08T08:32:38;4.15;;;2.20;;
51981;SDS011;37998;53.416;6.730;2023-03-08T08:35:03;3.28;;;2.28;;
51981;SDS011;37998;53.416;6.730;2023-03-08T08:37:31;3.75;;;2.17;;
51981;SDS011;37998;53.416;6.730;2023-03-08T08:39:57;5.38;;;2.30;;
51981;SDS011;37998;53.416;6.730;2023-03-08T08:42:23;4.75;;;2.40;;
51981;SDS011;37998;53.416;6.730;2023-03-08T08:44:51;7.85;;;3.13;;
51981;SDS011;37998;53.416;6.730;2023-03-08T08:47:17;2.80;;;2.55;;
51981;SDS011;37998;53.416;6.730;2023-03-08T08:49:42;4.03;;;2.75;;
51981;SDS011;37998;53.416;6.730;2023-03-08T08:52:08;5.93;;;3.15;;
51981;SDS011;37998;53.416;6.730;2023-03-08T08:54:34;4.82;;;2.80;;
51981;SDS011;37998;53.416;6.730;2023-03-08T08:57:03;4.95;;;2.63;;
51981;SDS011;37998;53.416;6.730;2023-03-08T08:59:30;5.40;;;3.20;;
51981;SDS011;37998;53.416;6.730;2023-03-08T09:01:56;6.32;;;2.72;;
51981;SDS011;37998;53.416;6.730;2023-03-08T09:04:21;6.10;;;2.72;;
51981;SDS011;37998;53.416;6.730;2023-03-08T09:06:47;6.57;;;2.90;;
51981;SDS011;37998;53.416;6.730;2023-03-08T09:09:13;4.70;;;2.65;;
51981;SDS011;37998;53.416;6.730;2023-03-08T09:11:39;5.03;;;3.10;;
51981;SDS011;37998;53.416;6.730;2023-03-08T09:14:05;5.10;;;3.10;;
51981;SDS011;37998;53.416;6.730;2023-03-08T09:16:31;3.80;;;3.25;;
51981;SDS011;37998;53.416;6.730;2023-03-08T09:18:59;4.78;;;3.33;;
51981;SDS011;37998;53.416;6.730;2023-03-08T09:21:26;7.65;;;4.38;;
51981;SDS011;37998;53.416;6.730;2023-03-08T09:23:53;6.13;;;3.67;;
51981;SDS011;37998;53.416;6.730;2023-03-08T09:26:19;4.85;;;3.65;;
51981;SDS011;37998;53.416;6.730;2023-03-08T09:28:45;6.20;;;3.60;;
51981;SDS011;37998;53.416;6.730;2023-03-08T09:31:11;7.55;;;3.40;;
51981;SDS011;37998;53.416;6.730;2023-03-08T09:33:49;6.13;;;3.83;;
51981;SDS011;37998;53.416;6.730;2023-03-08T09:36:16;8.07;;;3.72;;
51981;SDS011;37998;53.416;6.730;2023-03-08T09:38:42;7.93;;;3.95;;
51981;SDS011;37998;53.416;6.730;2023-03-08T09:41:32;5.68;;;3.80;;
51981;SDS011;37998;53.416;6.730;2023-03-08T09:46:52;4.68;;;3.42;;
51981;SDS011;37998;53.416;6.730;2023-03-08T09:49:26;6.28;;;3.53;;
51981;SDS011;37998;53.416;6.730;2023-03-08T09:52:01;6.80;;;3.90;;
51981;SDS011;37998;53.416;6.730;2023-03-08T09:54:27;6.00;;;3.63;;
51981;SDS011;37998;53.416;6.730;2023-03-08T09:56:54;6.22;;;3.40;;
51981;SDS011;37998;53.416;6.730;2023-03-08T10:02:41;5.22;;;3.67;;
51981;SDS011;37998;53.416;6.730;2023-03-08T10:05:24;5.95;;;3.95;;
51981;SDS011;37998;53.416;6.730;2023-03-08T10:13:29;5.72;;;3.75;;
51981;SDS011;37998;53.416;6.730;2023-03-08T10:21:25;9.63;;;3.83;;
51981;SDS011;37998;53.416;6.730;2023-03-08T10:23:55;5.97;;;3.85;;
51981;SDS011;37998;53.416;6.730;2023-03-08T10:26:36;4.57;;;4.18;;
51981;SDS011;37998;53.416;6.730;2023-03-08T10:29:02;5.20;;;4.30;;
51981;SDS011;37998;53.416;6.730;2023-03-08T10:31:29;5.68;;;3.67;;
51981;SDS011;37998;53.416;6.730;2023-03-08T10:34:14;8.27;;;3.88;;
51981;SDS011;37998;53.416;6.730;2023-03-08T10:36:57;7.10;;;4.32;;
51981;SDS011;37998;53.416;6.730;2023-03-08T10:39:25;6.50;;;3.78;;
51981;SDS011;37998;53.416;6.730;2023-03-08T10:42:01;4.85;;;3.63;;
51981;SDS011;37998;53.416;6.730;2023-03-08T10:44:38;4.43;;;3.55;;
51981;SDS011;37998;53.416;6.730;2023-03-08T10:47:24;11.18;;;4.30;;
51981;SDS011;37998;53.416;6.730;2023-03-08T10:50:04;5.95;;;3.88;;
51981;SDS011;37998;53.416;6.730;2023-03-08T10:52:37;5.60;;;3.97;;
51981;SDS011;37998;53.416;6.730;2023-03-08T10:55:04;7.10;;;3.97;;
51981;SDS011;37998;53.416;6.730;2023-03-08T10:57:30;4.43;;;3.60;;
51981;SDS011;37998;53.416;6.730;2023-03-08T11:00:00;6.90;;;3.67;;
51981;SDS011;37998;53.416;6.730;2023-03-08T11:02:50;6.47;;;2.95;;
51981;SDS011;37998;53.416;6.730;2023-03-08T11:05:35;8.10;;;3.22;;
51981;SDS011;37998;53.416;6.730;2023-03-08T11:08:01;5.82;;;2.80;;
51981;SDS011;37998;53.416;6.730;2023-03-08T11:10:27;4.05;;;2.65;;
51981;SDS011;37998;53.416;6.730;2023-03-08T11:13:04;5.38;;;2.75;;
51981;SDS011;37998;53.416;6.730;2023-03-08T11:15:33;4.68;;;2.83;;
51981;SDS011;37998;53.416;6.730;2023-03-08T11:20:54;8.75;;;3.03;;
51981;SDS011;37998;53.416;6.730;2023-03-08T11:23:25;4.65;;;2.72;;
51981;SDS011;37998;53.416;6.730;2023-03-08T11:26:02;3.72;;;2.63;;
51981;SDS011;37998;53.416;6.730;2023-03-08T11:34:21;7.10;;;2.75;;
51981;SDS011;37998;53.416;6.730;2023-03-08T11:37:00;6.85;;;2.67;;
51981;SDS011;37998;53.416;6.730;2023-03-08T11:39:39;5.78;;;3.08;;
51981;SDS011;37998;53.416;6.730;2023-03-08T11:58:52;3.88;;;2.80;;
51981;SDS011;37998;53.416;6.730;2023-03-08T12:01:37;6.65;;;2.92;;
51981;SDS011;37998;53.416;6.730;2023-03-08T12:04:11;6.78;;;2.40;;
51981;SDS011;37998;53.416;6.730;2023-03-08T12:07:09;5.53;;;2.72;;
51981;SDS011;37998;53.416;6.730;2023-03-08T12:10:29;7.85;;;2.70;;
51981;SDS011;37998;53.416;6.730;2023-03-08T12:12:43;6.47;;;2.30;;
51981;SDS011;37998;53.416;6.730;2023-03-08T12:15:20;7.60;;;2.53;;
51981;SDS011;37998;53.416;6.730;2023-03-08T12:17:53;4.75;;;2.55;;
51981;SDS011;37998;53.416;6.730;2023-03-08T12:20:24;3.60;;;2.03;;
51981;SDS011;37998;53.416;6.730;2023-03-08T12:28:04;4.10;;;2.00;;
51981;SDS011;37998;53.416;6.730;2023-03-08T12:30:49;6.60;;;2.28;;
51981;SDS011;37998;53.416;6.730;2023-03-08T12:33:35;4.22;;;1.83;;
51981;SDS011;37998;53.416;6.730;2023-03-08T12:36:02;4.00;;;1.83;;
51981;SDS011;37998;53.416;6.730;2023-03-08T12:40:57;2.60;;;1.85;;
51981;SDS011;37998;53.416;6.730;2023-03-08T12:58:52;2.88;;;2.00;;
51981;SDS011;37998;53.416;6.730;2023-03-08T13:03:58;3.08;;;1.65;;
51981;SDS011;37998;53.416;6.730;2023-03-08T13:20:08;4.40;;;1.40;;
51981;SDS011;37998;53.416;6.730;2023-03-08T13:22:47;4.43;;;1.40;;
51981;SDS011;37998;53.416;6.730;2023-03-08T13:28:37;15.32;;;3.35;;
51981;SDS011;37998;53.416;6.730;2023-03-08T13:31:30;8.25;;;2.17;;
51981;SDS011;37998;53.416;6.730;2023-03-08T13:33:42;4.57;;;1.52;;
51981;SDS011;37998;53.416;6.730;2023-03-08T13:38:59;3.92;;;1.52;;
51981;SDS011;37998;53.416;6.730;2023-03-08T13:41:40;4.80;;;1.60;;
51981;SDS011;37998;53.416;6.730;2023-03-08T13:44:22;6.15;;;1.60;;
51981;SDS011;37998;53.416;6.730;2023-03-08T13:46:51;5.28;;;1.52;;
51981;SDS011;37998;53.416;6.730;2023-03-08T13:49:25;3.85;;;1.65;;
51981;SDS011;37998;53.416;6.730;2023-03-08T13:51:52;2.80;;;1.75;;
51981;SDS011;37998;53.416;6.730;2023-03-08T13:54:41;5.13;;;1.80;;
51981;SDS011;37998;53.416;6.730;2023-03-08T13:57:17;4.05;;;1.70;;
51981;SDS011;37998;53.416;6.730;2023-03-08T14:00:37;2.95;;;1.80;;
51981;SDS011;37998;53.416;6.730;2023-03-08T14:02:57;4.63;;;2.03;;
51981;SDS011;37998;53.416;6.730;2023-03-08T14:05:31;2.58;;;1.83;;
51981;SDS011;37998;53.416;6.730;2023-03-08T14:08:05;4.13;;;2.20;;
51981;SDS011;37998;53.416;6.730;2023-03-08T14:10:46;4.57;;;1.90;;
51981;SDS011;37998;53.416;6.730;2023-03-08T14:13:23;2.05;;;1.50;;
51981;SDS011;37998;53.416;6.730;2023-03-08T14:15:58;3.78;;;1.70;;
51981;SDS011;37998;53.416;6.730;2023-03-08T14:21:11;4.30;;;1.73;;
51981;SDS011;37998;53.416;6.730;2023-03-08T14:23:44;7.50;;;1.95;;
51981;SDS011;37998;53.416;6.730;2023-03-08T14:29:10;2.92;;;1.70;;
51981;SDS011;37998;53.416;6.730;2023-03-08T14:31:42;4.10;;;1.98;;
51981;SDS011;37998;53.416;6.730;2023-03-08T14:34:50;2.97;;;1.70;;
51981;SDS011;37998;53.416;6.730;2023-03-08T14:37:29;5.15;;;2.22;;
51981;SDS011;37998;53.416;6.730;2023-03-08T14:40:07;4.22;;;1.92;;
51981;SDS011;37998;53.416;6.730;2023-03-08T14:42:43;5.53;;;2.15;;
51981;SDS011;37998;53.416;6.730;2023-03-08T14:45:24;4.57;;;1.73;;
51981;SDS011;37998;53.416;6.730;2023-03-08T14:51:34;4.65;;;2.00;;
51981;SDS011;37998;53.416;6.730;2023-03-08T14:53:41;4.43;;;2.20;;
51981;SDS011;37998;53.416;6.730;2023-03-08T14:56:16;4.20;;;1.80;;
51981;SDS011;37998;53.416;6.730;2023-03-08T14:58:43;4.40;;;2.03;;
51981;SDS011;37998;53.416;6.730;2023-03-08T15:01:21;3.08;;;1.77;;
51981;SDS011;37998;53.416;6.730;2023-03-08T15:03:48;5.88;;;1.60;;
51981;SDS011;37998;53.416;6.730;2023-03-08T15:06:16;5.82;;;2.00;;
51981;SDS011;37998;53.416;6.730;2023-03-08T15:08:47;3.70;;;1.90;;
51981;SDS011;37998;53.416;6.730;2023-03-08T15:11:14;4.40;;;1.77;;
51981;SDS011;37998;53.416;6.730;2023-03-08T15:13:39;5.78;;;2.50;;
51981;SDS011;37998;53.416;6.730;2023-03-08T15:16:06;7.00;;;2.05;;
51981;SDS011;37998;53.416;6.730;2023-03-08T15:18:32;5.88;;;1.98;;
51981;SDS011;37998;53.416;6.730;2023-03-08T15:20:57;3.15;;;1.70;;
51981;SDS011;37998;53.416;6.730;2023-03-08T15:23:24;3.03;;;1.73;;
51981;SDS011;37998;53.416;6.730;2023-03-08T15:25:52;7.22;;;2.90;;
51981;SDS011;37998;53.416;6.730;2023-03-08T15:28:18;2.67;;;1.70;;
51981;SDS011;37998;53.416;6.730;2023-03-08T15:30:45;4.13;;;1.67;;
51981;SDS011;37998;53.416;6.730;2023-03-08T15:33:11;10.48;;;2.30;;
51981;SDS011;37998;53.416;6.730;2023-03-08T15:35:37;4.80;;;2.10;;
51981;SDS011;37998;53.416;6.730;2023-03-08T15:38:04;3.10;;;1.88;;
51981;SDS011;37998;53.416;6.730;2023-03-08T15:40:30;4.97;;;1.75;;
51981;SDS011;37998;53.416;6.730;2023-03-08T15:42:57;4.30;;;1.80;;
51981;SDS011;37998;53.416;6.730;2023-03-08T15:45:23;5.32;;;2.28;;
51981;SDS011;37998;53.416;6.730;2023-03-08T15:47:59;4.93;;;1.90;;
51981;SDS011;37998;53.416;6.730;2023-03-08T15:50:27;9.15;;;2.80;;
51981;SDS011;37998;53.416;6.730;2023-03-08T15:52:53;4.30;;;2.15;;
51981;SDS011;37998;53.416;6.730;2023-03-08T15:55:20;6.03;;;2.13;;
51981;SDS011;37998;53.416;6.730;2023-03-08T15:57:47;9.30;;;2.72;;
51981;SDS011;37998;53.416;6.730;2023-03-08T16:00:14;6.30;;;2.22;;
51981;SDS011;37998;53.416;6.730;2023-03-08T16:02:41;12.00;;;2.45;;
51981;SDS011;37998;53.416;6.730;2023-03-08T16:05:08;1.98;;;1.77;;
51981;SDS011;37998;53.416;6.730;2023-03-08T16:07:35;4.38;;;2.30;;
51981;SDS011;37998;53.416;6.730;2023-03-08T16:10:02;8.48;;;2.42;;
51981;SDS011;37998;53.416;6.730;2023-03-08T16:12:29;6.00;;;1.90;;
51981;SDS011;37998;53.416;6.730;2023-03-08T16:14:55;6.95;;;2.35;;
51981;SDS011;37998;53.416;6.730;2023-03-08T16:17:22;7.45;;;2.13;;
51981;SDS011;37998;53.416;6.730;2023-03-08T16:19:52;5.85;;;2.95;;
51981;SDS011;37998;53.416;6.730;2023-03-08T16:22:17;6.82;;;3.30;;
51981;SDS011;37998;53.416;6.730;2023-03-08T16:24:43;6.78;;;3.03;;
51981;SDS011;37998;53.416;6.730;2023-03-08T16:27:09;3.50;;;2.42;;
51981;SDS011;37998;53.416;6.730;2023-03-08T16:29:35;7.68;;;3.08;;
51981;SDS011;37998;53.416;6.730;2023-03-08T16:32:01;8.27;;;2.67;;
51981;SDS011;37998;53.416;6.730;2023-03-08T16:34:27;5.40;;;2.10;;
51981;SDS011;37998;53.416;6.730;2023-03-08T16:36:54;10.25;;;2.90;;